sensor_id;sensor_type;location;lat;lon;timestamp;P1;durP1;ratioP1;P2;durP2;ratioP2
20118;SDS011;10220;42.716;23.306;2023-06-26T00:01:48;3.40;;;3.08;;
20118;SDS011;10220;42.716;23.306;2023-06-26T00:04:13;3.10;;;2.80;;
20118;SDS011;10220;42.716;23.306;2023-06-26T00:06:39;3.42;;;3.03;;
20118;SDS011;10220;42.716;23.306;2023-06-26T00:09:05;2.97;;;2.70;;
20118;SDS011;10220;42.716;23.306;2023-06-26T00:11:31;4.70;;;3.85;;
20118;SDS011;10220;42.716;23.306;2023-06-26T00:13:58;3.83;;;3.50;;
20118;SDS011;10220;42.716;23.306;2023-06-26T00:16:25;4.40;;;3.38;;
20118;SDS011;10220;42.716;23.306;2023-06-26T00:18:51;4.65;;;3.80;;
20118;SDS011;10220;42.716;23.306;2023-06-26T00:21:16;4.55;;;2.33;;
20118;SDS011;10220;42.716;23.306;2023-06-26T00:23:42;3.70;;;3.17;;
20118;SDS011;10220;42.716;23.306;2023-06-26T00:26:07;3.67;;;3.40;;
20118;SDS011;10220;42.716;23.306;2023-06-26T00:28:34;6.05;;;3.05;;
20118;SDS011;10220;42.716;23.306;2023-06-26T00:30:59;2.95;;;2.65;;
20118;SDS011;10220;42.716;23.306;2023-06-26T00:33:25;3.65;;;3.17;;
20118;SDS011;10220;42.716;23.306;2023-06-26T00:35:50;4.15;;;2.53;;
20118;SDS011;10220;42.716;23.306;2023-06-26T00:38:16;3.50;;;2.55;;
20118;SDS011;10220;42.716;23.306;2023-06-26T00:40:42;4.05;;;2.78;;
20118;SDS011;10220;42.716;23.306;2023-06-26T00:43:08;2.72;;;2.53;;
20118;SDS011;10220;42.716;23.306;2023-06-26T00:45:33;3.90;;;2.17;;
20118;SDS011;10220;42.716;23.306;2023-06-26T00:47:59;2.38;;;2.17;;
20118;SDS011;10220;42.716;23.306;2023-06-26T00:50:24;3.72;;;2.65;;
20118;SDS011;10220;42.716;23.306;2023-06-26T00:52:51;4.53;;;3.95;;
20118;SDS011;10220;42.716;23.306;2023-06-26T00:55:16;4.10;;;3.65;;
20118;SDS011;10220;42.716;23.306;2023-06-26T00:57:42;4.03;;;3.63;;
20118;SDS011;10220;42.716;23.306;2023-06-26T01:00:10;3.03;;;2.75;;
20118;SDS011;10220;42.716;23.306;2023-06-26T01:02:37;2.33;;;2.20;;
20118;SDS011;10220;42.716;23.306;2023-06-26T01:05:04;3.47;;;2.42;;
20118;SDS011;10220;42.716;23.306;2023-06-26T01:07:31;2.40;;;2.10;;
20118;SDS011;10220;42.716;23.306;2023-06-26T01:10:01;2.25;;;2.05;;
20118;SDS011;10220;42.716;23.306;2023-06-26T01:12:29;2.92;;;2.47;;
20118;SDS011;10220;42.716;23.306;2023-06-26T01:14:56;2.67;;;2.47;;
20118;SDS011;10220;42.716;23.306;2023-06-26T01:17:21;3.70;;;2.88;;
20118;SDS011;10220;42.716;23.306;2023-06-26T01:19:48;2.92;;;2.42;;
20118;SDS011;10220;42.716;23.306;2023-06-26T01:22:19;2.28;;;2.05;;
20118;SDS011;10220;42.716;23.306;2023-06-26T01:25:15;4.38;;;2.63;;
20118;SDS011;10220;42.716;23.306;2023-06-26T01:27:48;2.85;;;2.55;;
20118;SDS011;10220;42.716;23.306;2023-06-26T01:30:16;2.92;;;2.72;;
20118;SDS011;10220;42.716;23.306;2023-06-26T01:32:44;3.75;;;1.90;;
20118;SDS011;10220;42.716;23.306;2023-06-26T01:35:10;3.25;;;2.53;;
20118;SDS011;10220;42.716;23.306;2023-06-26T01:37:36;2.88;;;2.60;;
20118;SDS011;10220;42.716;23.306;2023-06-26T01:40:02;2.50;;;2.30;;
20118;SDS011;10220;42.716;23.306;2023-06-26T01:42:30;1.90;;;1.80;;
20118;SDS011;10220;42.716;23.306;2023-06-26T01:45:04;2.40;;;2.30;;
20118;SDS011;10220;42.716;23.306;2023-06-26T01:47:36;2.45;;;2.25;;
20118;SDS011;10220;42.716;23.306;2023-06-26T01:50:06;3.88;;;3.38;;
20118;SDS011;10220;42.716;23.306;2023-06-26T01:52:40;2.20;;;2.03;;
20118;SDS011;10220;42.716;23.306;2023-06-26T01:57:39;2.35;;;2.03;;
20118;SDS011;10220;42.716;23.306;2023-06-26T02:00:06;2.80;;;2.45;;
20118;SDS011;10220;42.716;23.306;2023-06-26T02:02:36;4.03;;;3.38;;
20118;SDS011;10220;42.716;23.306;2023-06-26T02:05:02;3.92;;;2.85;;
20118;SDS011;10220;42.716;23.306;2023-06-26T02:07:27;1.90;;;1.80;;
20118;SDS011;10220;42.716;23.306;2023-06-26T02:09:52;4.40;;;2.97;;
20118;SDS011;10220;42.716;23.306;2023-06-26T02:12:18;2.97;;;2.78;;
20118;SDS011;10220;42.716;23.306;2023-06-26T02:14:44;2.45;;;2.08;;
20118;SDS011;10220;42.716;23.306;2023-06-26T02:17:09;3.10;;;2.90;;
20118;SDS011;10220;42.716;23.306;2023-06-26T02:19:35;3.03;;;2.80;;
20118;SDS011;10220;42.716;23.306;2023-06-26T02:22:00;2.17;;;1.98;;
20118;SDS011;10220;42.716;23.306;2023-06-26T02:24:26;2.55;;;2.03;;
20118;SDS011;10220;42.716;23.306;2023-06-26T02:26:55;2.50;;;2.30;;
20118;SDS011;10220;42.716;23.306;2023-06-26T02:29:20;3.20;;;2.90;;
20118;SDS011;10220;42.716;23.306;2023-06-26T02:31:46;4.30;;;3.42;;
20118;SDS011;10220;42.716;23.306;2023-06-26T02:34:11;3.70;;;3.00;;
20118;SDS011;10220;42.716;23.306;2023-06-26T02:36:37;3.65;;;3.17;;
20118;SDS011;10220;42.716;23.306;2023-06-26T02:39:02;3.53;;;2.65;;
20118;SDS011;10220;42.716;23.306;2023-06-26T02:41:27;3.38;;;3.00;;
20118;SDS011;10220;42.716;23.306;2023-06-26T02:43:53;3.58;;;3.28;;
20118;SDS011;10220;42.716;23.306;2023-06-26T02:46:18;3.45;;;2.80;;
20118;SDS011;10220;42.716;23.306;2023-06-26T02:48:43;2.97;;;2.47;;
20118;SDS011;10220;42.716;23.306;2023-06-26T02:51:09;3.08;;;2.83;;
20118;SDS011;10220;42.716;23.306;2023-06-26T02:53:34;4.10;;;3.03;;
20118;SDS011;10220;42.716;23.306;2023-06-26T02:56:00;4.47;;;3.70;;
20118;SDS011;10220;42.716;23.306;2023-06-26T02:58:25;3.25;;;2.80;;
20118;SDS011;10220;42.716;23.306;2023-06-26T03:00:50;3.40;;;3.17;;
20118;SDS011;10220;42.716;23.306;2023-06-26T03:03:16;3.70;;;3.25;;
20118;SDS011;10220;42.716;23.306;2023-06-26T03:05:42;5.13;;;3.20;;
20118;SDS011;10220;42.716;23.306;2023-06-26T03:08:07;4.18;;;3.17;;
20118;SDS011;10220;42.716;23.306;2023-06-26T03:10:33;5.45;;;4.95;;
20118;SDS011;10220;42.716;23.306;2023-06-26T03:12:58;4.05;;;3.50;;
20118;SDS011;10220;42.716;23.306;2023-06-26T03:15:24;4.22;;;3.80;;
20118;SDS011;10220;42.716;23.306;2023-06-26T03:17:49;4.93;;;3.95;;
20118;SDS011;10220;42.716;23.306;2023-06-26T03:20:14;4.35;;;3.67;;
20118;SDS011;10220;42.716;23.306;2023-06-26T03:22:40;5.90;;;4.30;;
20118;SDS011;10220;42.716;23.306;2023-06-26T03:25:06;5.15;;;4.60;;
20118;SDS011;10220;42.716;23.306;2023-06-26T03:27:31;3.88;;;3.40;;
20118;SDS011;10220;42.716;23.306;2023-06-26T03:29:56;4.50;;;4.10;;
20118;SDS011;10220;42.716;23.306;2023-06-26T03:32:22;3.60;;;3.25;;
20118;SDS011;10220;42.716;23.306;2023-06-26T03:34:47;6.53;;;4.60;;
20118;SDS011;10220;42.716;23.306;2023-06-26T03:37:13;10.57;;;3.85;;
20118;SDS011;10220;42.716;23.306;2023-06-26T03:39:38;4.60;;;4.18;;
20118;SDS011;10220;42.716;23.306;2023-06-26T03:42:04;5.43;;;4.18;;
20118;SDS011;10220;42.716;23.306;2023-06-26T03:44:29;3.95;;;3.50;;
20118;SDS011;10220;42.716;23.306;2023-06-26T03:46:55;5.80;;;3.60;;
20118;SDS011;10220;42.716;23.306;2023-06-26T03:49:20;5.70;;;5.20;;
20118;SDS011;10220;42.716;23.306;2023-06-26T03:51:46;3.70;;;3.40;;
20118;SDS011;10220;42.716;23.306;2023-06-26T03:54:11;4.57;;;3.67;;
20118;SDS011;10220;42.716;23.306;2023-06-26T03:56:37;5.07;;;4.68;;
20118;SDS011;10220;42.716;23.306;2023-06-26T03:59:02;5.97;;;4.47;;
20118;SDS011;10220;42.716;23.306;2023-06-26T04:01:28;4.95;;;4.30;;
20118;SDS011;10220;42.716;23.306;2023-06-26T04:03:53;6.25;;;4.35;;
20118;SDS011;10220;42.716;23.306;2023-06-26T04:06:19;5.75;;;4.10;;
20118;SDS011;10220;42.716;23.306;2023-06-26T04:08:44;3.92;;;3.47;;
20118;SDS011;10220;42.716;23.306;2023-06-26T04:11:10;5.22;;;4.35;;
20118;SDS011;10220;42.716;23.306;2023-06-26T04:13:35;3.53;;;3.03;;
20118;SDS011;10220;42.716;23.306;2023-06-26T04:16:01;4.68;;;3.53;;
20118;SDS011;10220;42.716;23.306;2023-06-26T04:18:26;3.83;;;3.50;;
20118;SDS011;10220;42.716;23.306;2023-06-26T04:21:11;4.07;;;3.60;;
20118;SDS011;10220;42.716;23.306;2023-06-26T04:23:38;4.43;;;3.58;;
20118;SDS011;10220;42.716;23.306;2023-06-26T04:26:05;5.82;;;4.97;;
20118;SDS011;10220;42.716;23.306;2023-06-26T04:28:34;4.03;;;3.33;;
20118;SDS011;10220;42.716;23.306;2023-06-26T04:31:01;4.18;;;3.60;;
20118;SDS011;10220;42.716;23.306;2023-06-26T04:33:31;6.30;;;4.43;;
20118;SDS011;10220;42.716;23.306;2023-06-26T04:35:56;4.40;;;3.97;;
20118;SDS011;10220;42.716;23.306;2023-06-26T04:38:22;5.80;;;4.88;;
20118;SDS011;10220;42.716;23.306;2023-06-26T04:40:48;4.07;;;3.05;;
20118;SDS011;10220;42.716;23.306;2023-06-26T04:43:14;3.70;;;2.97;;
20118;SDS011;10220;42.716;23.306;2023-06-26T04:45:40;4.57;;;3.63;;
20118;SDS011;10220;42.716;23.306;2023-06-26T04:48:05;4.70;;;3.83;;
20118;SDS011;10220;42.716;23.306;2023-06-26T04:50:31;6.03;;;4.43;;
20118;SDS011;10220;42.716;23.306;2023-06-26T04:52:58;4.55;;;3.35;;
20118;SDS011;10220;42.716;23.306;2023-06-26T04:55:24;5.65;;;3.80;;
20118;SDS011;10220;42.716;23.306;2023-06-26T04:57:50;5.72;;;3.78;;
20118;SDS011;10220;42.716;23.306;2023-06-26T05:00:16;6.07;;;4.75;;
20118;SDS011;10220;42.716;23.306;2023-06-26T05:02:42;4.63;;;3.72;;
20118;SDS011;10220;42.716;23.306;2023-06-26T05:05:07;8.18;;;3.75;;
20118;SDS011;10220;42.716;23.306;2023-06-26T05:07:33;5.68;;;4.28;;
20118;SDS011;10220;42.716;23.306;2023-06-26T05:09:59;4.88;;;3.47;;
20118;SDS011;10220;42.716;23.306;2023-06-26T05:12:24;3.13;;;2.83;;
20118;SDS011;10220;42.716;23.306;2023-06-26T05:14:50;6.10;;;3.25;;
20118;SDS011;10220;42.716;23.306;2023-06-26T05:17:15;5.13;;;3.42;;
20118;SDS011;10220;42.716;23.306;2023-06-26T05:19:41;3.03;;;2.72;;
20118;SDS011;10220;42.716;23.306;2023-06-26T05:22:07;4.57;;;3.47;;
20118;SDS011;10220;42.716;23.306;2023-06-26T05:24:36;6.18;;;4.05;;
20118;SDS011;10220;42.716;23.306;2023-06-26T05:27:03;5.57;;;4.22;;
20118;SDS011;10220;42.716;23.306;2023-06-26T05:29:30;4.88;;;4.25;;
20118;SDS011;10220;42.716;23.306;2023-06-26T05:31:56;3.67;;;3.22;;
20118;SDS011;10220;42.716;23.306;2023-06-26T05:34:22;5.63;;;3.47;;
20118;SDS011;10220;42.716;23.306;2023-06-26T05:36:52;5.10;;;3.65;;
20118;SDS011;10220;42.716;23.306;2023-06-26T05:39:24;5.88;;;4.82;;
20118;SDS011;10220;42.716;23.306;2023-06-26T05:41:50;6.25;;;3.80;;
20118;SDS011;10220;42.716;23.306;2023-06-26T05:44:16;5.75;;;4.28;;
20118;SDS011;10220;42.716;23.306;2023-06-26T05:46:41;6.47;;;4.25;;
20118;SDS011;10220;42.716;23.306;2023-06-26T05:49:07;3.55;;;3.20;;
20118;SDS011;10220;42.716;23.306;2023-06-26T05:51:33;3.92;;;3.53;;
20118;SDS011;10220;42.716;23.306;2023-06-26T05:53:59;5.85;;;3.33;;
20118;SDS011;10220;42.716;23.306;2023-06-26T05:56:25;6.22;;;3.95;;
20118;SDS011;10220;42.716;23.306;2023-06-26T05:58:52;12.73;;;4.18;;
20118;SDS011;10220;42.716;23.306;2023-06-26T06:01:18;5.18;;;4.07;;
20118;SDS011;10220;42.716;23.306;2023-06-26T06:03:44;4.63;;;3.75;;
20118;SDS011;10220;42.716;23.306;2023-06-26T06:06:10;4.28;;;2.78;;
20118;SDS011;10220;42.716;23.306;2023-06-26T06:08:36;6.95;;;4.10;;
20118;SDS011;10220;42.716;23.306;2023-06-26T06:11:01;5.85;;;3.30;;
20118;SDS011;10220;42.716;23.306;2023-06-26T06:13:27;4.10;;;3.53;;
20118;SDS011;10220;42.716;23.306;2023-06-26T06:15:53;7.63;;;4.60;;
20118;SDS011;10220;42.716;23.306;2023-06-26T06:18:18;6.07;;;4.38;;
20118;SDS011;10220;42.716;23.306;2023-06-26T06:20:44;4.47;;;3.65;;
20118;SDS011;10220;42.716;23.306;2023-06-26T06:23:09;6.43;;;3.50;;
20118;SDS011;10220;42.716;23.306;2023-06-26T06:25:34;5.18;;;3.88;;
20118;SDS011;10220;42.716;23.306;2023-06-26T06:28:00;4.55;;;3.40;;
20118;SDS011;10220;42.716;23.306;2023-06-26T06:30:25;6.75;;;3.17;;
20118;SDS011;10220;42.716;23.306;2023-06-26T06:32:52;10.48;;;4.05;;
20118;SDS011;10220;42.716;23.306;2023-06-26T06:35:18;5.53;;;3.88;;
20118;SDS011;10220;42.716;23.306;2023-06-26T06:37:44;5.63;;;3.60;;
20118;SDS011;10220;42.716;23.306;2023-06-26T06:40:10;4.60;;;3.75;;
20118;SDS011;10220;42.716;23.306;2023-06-26T06:42:35;6.68;;;3.63;;
20118;SDS011;10220;42.716;23.306;2023-06-26T06:45:04;4.78;;;3.92;;
20118;SDS011;10220;42.716;23.306;2023-06-26T06:47:31;4.35;;;3.58;;
20118;SDS011;10220;42.716;23.306;2023-06-26T06:49:57;5.78;;;3.58;;
20118;SDS011;10220;42.716;23.306;2023-06-26T06:52:23;5.00;;;3.20;;
20118;SDS011;10220;42.716;23.306;2023-06-26T06:54:52;4.28;;;2.63;;
20118;SDS011;10220;42.716;23.306;2023-06-26T06:57:22;3.65;;;3.17;;
20118;SDS011;10220;42.716;23.306;2023-06-26T06:59:48;7.45;;;3.33;;
20118;SDS011;10220;42.716;23.306;2023-06-26T07:02:14;6.05;;;3.78;;
20118;SDS011;10220;42.716;23.306;2023-06-26T07:04:41;4.88;;;4.10;;
20118;SDS011;10220;42.716;23.306;2023-06-26T07:07:06;6.13;;;3.58;;
20118;SDS011;10220;42.716;23.306;2023-06-26T07:09:32;4.47;;;3.47;;
20118;SDS011;10220;42.716;23.306;2023-06-26T07:11:58;3.97;;;2.90;;
20118;SDS011;10220;42.716;23.306;2023-06-26T07:14:23;3.55;;;2.30;;
20118;SDS011;10220;42.716;23.306;2023-06-26T07:16:48;9.57;;;5.82;;
20118;SDS011;10220;42.716;23.306;2023-06-26T07:19:14;3.92;;;2.97;;
20118;SDS011;10220;42.716;23.306;2023-06-26T07:21:39;6.32;;;3.13;;
20118;SDS011;10220;42.716;23.306;2023-06-26T07:24:06;3.28;;;2.28;;
20118;SDS011;10220;42.716;23.306;2023-06-26T07:26:31;3.55;;;2.67;;
20118;SDS011;10220;42.716;23.306;2023-06-26T07:28:57;4.05;;;2.60;;
20118;SDS011;10220;42.716;23.306;2023-06-26T07:31:22;4.80;;;3.00;;
20118;SDS011;10220;42.716;23.306;2023-06-26T07:33:48;6.60;;;3.03;;
20118;SDS011;10220;42.716;23.306;2023-06-26T07:36:13;3.60;;;2.72;;
20118;SDS011;10220;42.716;23.306;2023-06-26T07:38:39;3.85;;;2.15;;
20118;SDS011;10220;42.716;23.306;2023-06-26T07:41:04;2.90;;;2.20;;
20118;SDS011;10220;42.716;23.306;2023-06-26T07:43:30;2.22;;;1.85;;
20118;SDS011;10220;42.716;23.306;2023-06-26T07:45:56;5.03;;;2.78;;
20118;SDS011;10220;42.716;23.306;2023-06-26T07:48:23;3.03;;;2.65;;
20118;SDS011;10220;42.716;23.306;2023-06-26T07:50:49;2.97;;;2.15;;
20118;SDS011;10220;42.716;23.306;2023-06-26T07:53:17;4.07;;;2.42;;
20118;SDS011;10220;42.716;23.306;2023-06-26T07:55:45;4.30;;;3.13;;
20118;SDS011;10220;42.716;23.306;2023-06-26T07:58:10;5.53;;;3.78;;
20118;SDS011;10220;42.716;23.306;2023-06-26T08:00:36;4.70;;;2.35;;
20118;SDS011;10220;42.716;23.306;2023-06-26T08:03:01;2.55;;;2.35;;
20118;SDS011;10220;42.716;23.306;2023-06-26T08:05:26;6.95;;;2.20;;
20118;SDS011;10220;42.716;23.306;2023-06-26T08:07:52;3.17;;;2.20;;
20118;SDS011;10220;42.716;23.306;2023-06-26T08:10:17;4.82;;;3.22;;
20118;SDS011;10220;42.716;23.306;2023-06-26T08:12:43;3.38;;;2.33;;
20118;SDS011;10220;42.716;23.306;2023-06-26T08:15:10;3.90;;;2.50;;
20118;SDS011;10220;42.716;23.306;2023-06-26T08:17:37;3.15;;;2.38;;
20118;SDS011;10220;42.716;23.306;2023-06-26T08:20:03;2.63;;;2.15;;
20118;SDS011;10220;42.716;23.306;2023-06-26T08:22:29;3.05;;;2.13;;
20118;SDS011;10220;42.716;23.306;2023-06-26T08:24:55;2.92;;;1.90;;
20118;SDS011;10220;42.716;23.306;2023-06-26T08:27:21;3.67;;;2.10;;
20118;SDS011;10220;42.716;23.306;2023-06-26T08:29:48;3.40;;;2.08;;
20118;SDS011;10220;42.716;23.306;2023-06-26T08:32:13;2.53;;;2.10;;
20118;SDS011;10220;42.716;23.306;2023-06-26T08:34:39;3.15;;;2.17;;
20118;SDS011;10220;42.716;23.306;2023-06-26T08:37:04;3.90;;;2.33;;
20118;SDS011;10220;42.716;23.306;2023-06-26T08:39:30;2.63;;;1.60;;
20118;SDS011;10220;42.716;23.306;2023-06-26T08:41:55;2.72;;;2.53;;
20118;SDS011;10220;42.716;23.306;2023-06-26T08:44:22;3.10;;;2.25;;
20118;SDS011;10220;42.716;23.306;2023-06-26T08:46:50;2.25;;;1.70;;
20118;SDS011;10220;42.716;23.306;2023-06-26T08:52:24;2.45;;;1.92;;
20118;SDS011;10220;42.716;23.306;2023-06-26T08:54:58;3.67;;;2.50;;
20118;SDS011;10220;42.716;23.306;2023-06-26T08:57:24;6.50;;;2.38;;
20118;SDS011;10220;42.716;23.306;2023-06-26T08:59:51;2.83;;;2.00;;
20118;SDS011;10220;42.716;23.306;2023-06-26T09:02:17;2.40;;;1.95;;
20118;SDS011;10220;42.716;23.306;2023-06-26T09:04:45;2.38;;;1.80;;
20118;SDS011;10220;42.716;23.306;2023-06-26T09:07:12;3.00;;;1.90;;
20118;SDS011;10220;42.716;23.306;2023-06-26T09:09:38;4.57;;;2.38;;
20118;SDS011;10220;42.716;23.306;2023-06-26T09:12:03;3.70;;;1.80;;
20118;SDS011;10220;42.716;23.306;2023-06-26T09:14:32;3.92;;;2.28;;
20118;SDS011;10220;42.716;23.306;2023-06-26T09:16:57;2.13;;;1.80;;
20118;SDS011;10220;42.716;23.306;2023-06-26T09:19:23;2.97;;;1.60;;
20118;SDS011;10220;42.716;23.306;2023-06-26T09:21:49;2.58;;;2.10;;
20118;SDS011;10220;42.716;23.306;2023-06-26T09:24:16;2.30;;;1.45;;
20118;SDS011;10220;42.716;23.306;2023-06-26T09:26:41;1.77;;;1.02;;
20118;SDS011;10220;42.716;23.306;2023-06-26T09:29:08;2.65;;;1.40;;
20118;SDS011;10220;42.716;23.306;2023-06-26T09:31:35;2.03;;;1.38;;
20118;SDS011;10220;42.716;23.306;2023-06-26T09:34:02;2.05;;;1.70;;
20118;SDS011;10220;42.716;23.306;2023-06-26T09:36:29;2.47;;;1.65;;
20118;SDS011;10220;42.716;23.306;2023-06-26T09:39:02;2.65;;;2.10;;
20118;SDS011;10220;42.716;23.306;2023-06-26T09:41:29;2.67;;;1.65;;
20118;SDS011;10220;42.716;23.306;2023-06-26T09:43:57;2.30;;;1.75;;
20118;SDS011;10220;42.716;23.306;2023-06-26T09:46:27;2.08;;;1.58;;
20118;SDS011;10220;42.716;23.306;2023-06-26T09:49:12;1.98;;;1.70;;
20118;SDS011;10220;42.716;23.306;2023-06-26T09:51:39;4.60;;;1.13;;
20118;SDS011;10220;42.716;23.306;2023-06-26T09:54:06;2.42;;;1.17;;
20118;SDS011;10220;42.716;23.306;2023-06-26T09:56:32;2.70;;;1.80;;
20118;SDS011;10220;42.716;23.306;2023-06-26T09:58:59;2.25;;;1.60;;
20118;SDS011;10220;42.716;23.306;2023-06-26T10:01:26;4.35;;;1.63;;
20118;SDS011;10220;42.716;23.306;2023-06-26T10:03:53;3.00;;;1.25;;
20118;SDS011;10220;42.716;23.306;2023-06-26T10:06:31;2.28;;;2.08;;
20118;SDS011;10220;42.716;23.306;2023-06-26T10:09:00;3.53;;;2.17;;
20118;SDS011;10220;42.716;23.306;2023-06-26T10:11:30;3.05;;;1.80;;
20118;SDS011;10220;42.716;23.306;2023-06-26T10:14:01;3.83;;;2.30;;
20118;SDS011;10220;42.716;23.306;2023-06-26T10:16:29;2.67;;;1.60;;
20118;SDS011;10220;42.716;23.306;2023-06-26T10:19:03;4.03;;;2.00;;
20118;SDS011;10220;42.716;23.306;2023-06-26T10:21:31;1.73;;;1.52;;
20118;SDS011;10220;42.716;23.306;2023-06-26T10:23:59;2.92;;;1.95;;
20118;SDS011;10220;42.716;23.306;2023-06-26T10:26:28;2.95;;;1.50;;
20118;SDS011;10220;42.716;23.306;2023-06-26T10:28:54;1.50;;;1.33;;
20118;SDS011;10220;42.716;23.306;2023-06-26T10:31:23;3.78;;;1.88;;
20118;SDS011;10220;42.716;23.306;2023-06-26T10:33:51;3.30;;;1.60;;
20118;SDS011;10220;42.716;23.306;2023-06-26T10:36:18;3.60;;;1.65;;
20118;SDS011;10220;42.716;23.306;2023-06-26T10:38:52;4.38;;;1.73;;
20118;SDS011;10220;42.716;23.306;2023-06-26T10:41:20;2.42;;;1.70;;
20118;SDS011;10220;42.716;23.306;2023-06-26T10:43:50;5.75;;;1.60;;
20118;SDS011;10220;42.716;23.306;2023-06-26T10:46:17;2.45;;;1.67;;
20118;SDS011;10220;42.716;23.306;2023-06-26T10:48:57;3.05;;;1.75;;
20118;SDS011;10220;42.716;23.306;2023-06-26T10:51:27;2.05;;;1.90;;
20118;SDS011;10220;42.716;23.306;2023-06-26T10:53:56;3.35;;;1.98;;
20118;SDS011;10220;42.716;23.306;2023-06-26T10:56:40;2.85;;;1.70;;
20118;SDS011;10220;42.716;23.306;2023-06-26T10:59:14;1.48;;;1.35;;
20118;SDS011;10220;42.716;23.306;2023-06-26T11:01:42;2.75;;;2.13;;
20118;SDS011;10220;42.716;23.306;2023-06-26T11:04:08;1.20;;;1.10;;
20118;SDS011;10220;42.716;23.306;2023-06-26T11:06:35;2.70;;;1.45;;
20118;SDS011;10220;42.716;23.306;2023-06-26T11:14:17;2.47;;;1.90;;
20118;SDS011;10220;42.716;23.306;2023-06-26T11:16:43;5.82;;;1.42;;
20118;SDS011;10220;42.716;23.306;2023-06-26T11:19:09;2.25;;;1.20;;
20118;SDS011;10220;42.716;23.306;2023-06-26T11:21:36;2.35;;;1.70;;
20118;SDS011;10220;42.716;23.306;2023-06-26T11:24:03;1.67;;;1.27;;
20118;SDS011;10220;42.716;23.306;2023-06-26T11:26:30;2.40;;;2.00;;
20118;SDS011;10220;42.716;23.306;2023-06-26T11:29:02;2.25;;;2.00;;
20118;SDS011;10220;42.716;23.306;2023-06-26T11:31:28;5.18;;;2.42;;
20118;SDS011;10220;42.716;23.306;2023-06-26T11:34:02;2.65;;;1.88;;
20118;SDS011;10220;42.716;23.306;2023-06-26T11:36:29;2.22;;;1.98;;
20118;SDS011;10220;42.716;23.306;2023-06-26T11:38:58;3.58;;;2.00;;
20118;SDS011;10220;42.716;23.306;2023-06-26T11:41:26;2.72;;;1.98;;
20118;SDS011;10220;42.716;23.306;2023-06-26T11:43:53;1.77;;;1.25;;
20118;SDS011;10220;42.716;23.306;2023-06-26T11:46:19;3.70;;;1.70;;
20118;SDS011;10220;42.716;23.306;2023-06-26T11:48:46;2.83;;;2.25;;
20118;SDS011;10220;42.716;23.306;2023-06-26T11:51:17;4.07;;;2.15;;
20118;SDS011;10220;42.716;23.306;2023-06-26T11:53:44;2.95;;;1.73;;
20118;SDS011;10220;42.716;23.306;2023-06-26T11:56:15;2.70;;;2.05;;
20118;SDS011;10220;42.716;23.306;2023-06-26T12:01:35;4.13;;;2.08;;
20118;SDS011;10220;42.716;23.306;2023-06-26T12:04:04;2.63;;;1.80;;
20118;SDS011;10220;42.716;23.306;2023-06-26T12:06:32;3.97;;;2.22;;
20118;SDS011;10220;42.716;23.306;2023-06-26T12:09:00;6.25;;;3.15;;
20118;SDS011;10220;42.716;23.306;2023-06-26T12:11:30;1.80;;;1.48;;
20118;SDS011;10220;42.716;23.306;2023-06-26T12:13:56;2.40;;;1.70;;
20118;SDS011;10220;42.716;23.306;2023-06-26T12:16:23;2.17;;;1.58;;
20118;SDS011;10220;42.716;23.306;2023-06-26T12:18:48;1.65;;;1.10;;
20118;SDS011;10220;42.716;23.306;2023-06-26T12:23:58;2.05;;;1.83;;
20118;SDS011;10220;42.716;23.306;2023-06-26T12:26:25;2.45;;;1.58;;
20118;SDS011;10220;42.716;23.306;2023-06-26T12:28:53;3.55;;;2.10;;
20118;SDS011;10220;42.716;23.306;2023-06-26T12:31:20;3.03;;;2.28;;
20118;SDS011;10220;42.716;23.306;2023-06-26T12:33:46;2.95;;;2.30;;
20118;SDS011;10220;42.716;23.306;2023-06-26T12:36:12;1.92;;;1.63;;
20118;SDS011;10220;42.716;23.306;2023-06-26T12:38:38;4.07;;;2.28;;
20118;SDS011;10220;42.716;23.306;2023-06-26T12:41:03;2.45;;;1.67;;
20118;SDS011;10220;42.716;23.306;2023-06-26T12:43:29;4.03;;;2.53;;
20118;SDS011;10220;42.716;23.306;2023-06-26T12:45:57;2.90;;;2.10;;
20118;SDS011;10220;42.716;23.306;2023-06-26T12:48:36;3.85;;;2.28;;
20118;SDS011;10220;42.716;23.306;2023-06-26T12:51:12;2.35;;;1.95;;
20118;SDS011;10220;42.716;23.306;2023-06-26T12:53:39;3.95;;;2.42;;
20118;SDS011;10220;42.716;23.306;2023-06-26T12:56:05;4.13;;;1.80;;
20118;SDS011;10220;42.716;23.306;2023-06-26T12:58:32;4.82;;;2.35;;
20118;SDS011;10220;42.716;23.306;2023-06-26T13:00:58;2.90;;;1.65;;
20118;SDS011;10220;42.716;23.306;2023-06-26T13:03:24;2.30;;;1.42;;
20118;SDS011;10220;42.716;23.306;2023-06-26T13:05:49;1.95;;;1.85;;
20118;SDS011;10220;42.716;23.306;2023-06-26T13:08:15;2.08;;;1.65;;
20118;SDS011;10220;42.716;23.306;2023-06-26T13:10:44;3.53;;;2.05;;
20118;SDS011;10220;42.716;23.306;2023-06-26T13:13:10;4.60;;;2.58;;
20118;SDS011;10220;42.716;23.306;2023-06-26T13:15:36;5.07;;;2.30;;
20118;SDS011;10220;42.716;23.306;2023-06-26T13:18:02;2.28;;;1.60;;
20118;SDS011;10220;42.716;23.306;2023-06-26T13:20:27;2.95;;;1.77;;
20118;SDS011;10220;42.716;23.306;2023-06-26T13:22:53;2.97;;;2.10;;
20118;SDS011;10220;42.716;23.306;2023-06-26T13:25:19;1.90;;;1.42;;
20118;SDS011;10220;42.716;23.306;2023-06-26T13:27:45;2.80;;;1.70;;
20118;SDS011;10220;42.716;23.306;2023-06-26T13:30:10;2.30;;;1.80;;
20118;SDS011;10220;42.716;23.306;2023-06-26T13:32:36;2.60;;;1.33;;
20118;SDS011;10220;42.716;23.306;2023-06-26T13:35:02;2.75;;;1.92;;
20118;SDS011;10220;42.716;23.306;2023-06-26T13:37:32;2.72;;;1.55;;
20118;SDS011;10220;42.716;23.306;2023-06-26T13:39:59;3.22;;;2.10;;
20118;SDS011;10220;42.716;23.306;2023-06-26T13:42:26;5.38;;;1.75;;
20118;SDS011;10220;42.716;23.306;2023-06-26T13:44:51;3.17;;;1.90;;
20118;SDS011;10220;42.716;23.306;2023-06-26T13:47:17;2.63;;;2.22;;
20118;SDS011;10220;42.716;23.306;2023-06-26T13:49:42;2.03;;;1.77;;
20118;SDS011;10220;42.716;23.306;2023-06-26T13:52:08;4.07;;;1.83;;
20118;SDS011;10220;42.716;23.306;2023-06-26T13:54:34;4.25;;;2.03;;
20118;SDS011;10220;42.716;23.306;2023-06-26T13:57:07;3.10;;;1.95;;
20118;SDS011;10220;42.716;23.306;2023-06-26T13:59:33;2.03;;;1.60;;
20118;SDS011;10220;42.716;23.306;2023-06-26T14:01:59;3.55;;;2.30;;
20118;SDS011;10220;42.716;23.306;2023-06-26T14:04:25;3.13;;;1.63;;
20118;SDS011;10220;42.716;23.306;2023-06-26T14:06:51;2.42;;;2.13;;
20118;SDS011;10220;42.716;23.306;2023-06-26T14:09:16;2.35;;;1.60;;
20118;SDS011;10220;42.716;23.306;2023-06-26T14:11:43;4.30;;;1.90;;
20118;SDS011;10220;42.716;23.306;2023-06-26T14:14:09;4.18;;;2.22;;
20118;SDS011;10220;42.716;23.306;2023-06-26T14:16:34;3.13;;;1.85;;
20118;SDS011;10220;42.716;23.306;2023-06-26T14:18:59;2.78;;;1.73;;
20118;SDS011;10220;42.716;23.306;2023-06-26T14:21:25;2.53;;;1.67;;
20118;SDS011;10220;42.716;23.306;2023-06-26T14:23:52;1.65;;;1.40;;
20118;SDS011;10220;42.716;23.306;2023-06-26T14:26:18;2.58;;;1.98;;
20118;SDS011;10220;42.716;23.306;2023-06-26T14:28:43;1.63;;;1.48;;
20118;SDS011;10220;42.716;23.306;2023-06-26T14:31:10;2.42;;;2.00;;
20118;SDS011;10220;42.716;23.306;2023-06-26T14:33:35;2.58;;;1.83;;
20118;SDS011;10220;42.716;23.306;2023-06-26T14:36:00;3.22;;;2.30;;
20118;SDS011;10220;42.716;23.306;2023-06-26T14:38:26;2.45;;;1.83;;
20118;SDS011;10220;42.716;23.306;2023-06-26T14:40:51;3.55;;;2.28;;
20118;SDS011;10220;42.716;23.306;2023-06-26T14:43:17;2.22;;;1.48;;
20118;SDS011;10220;42.716;23.306;2023-06-26T14:45:42;9.85;;;4.13;;
20118;SDS011;10220;42.716;23.306;2023-06-26T14:48:07;2.75;;;1.77;;